Time,TemperatureF,DewpointF,PressureIn,WindDirection,WindDirectionDegrees,WindSpeedMPH,WindSpeedGustMPH,Humidity,HourlyPrecipIn,Conditions,Clouds,dailyrainin,SolarRadiationWatts/m^2,SoftwareType,DateUTC
2013-04-20 00:03:00,47.0,37.0,-100.00,North,-999,-999.0,-999.0,68,0.00,,,0.94,0.000000,,2013-04-20 04:03:00,
2013-04-20 00:10:00,44.0,34.0,-100.00,North,-999,-999.0,-999.0,68,0.00,,,0.94,0.000000,,2013-04-20 04:10:00,
2013-04-20 00:43:00,44.0,34.0,-100.00,North,-999,-999.0,-999.0,68,0.00,,,0.94,0.000000,,2013-04-20 04:43:00,
2013-04-20 00:53:00,44.0,34.0,-100.00,North,-999,-999.0,-999.0,68,0.00,,,0.94,0.000000,,2013-04-20 04:53:00,
2013-04-20 01:02:00,44.0,34.0,-100.00,North,-999,-999.0,-999.0,68,0.00,,,0.94,0.000000,,2013-04-20 05:02:00,
2013-04-20 01:10:00,44.0,32.0,-100.00,North,-999,-999.0,-999.0,62,0.00,,,0.93,0.000000,,2013-04-20 05:10:00,
2013-04-20 01:32:00,44.0,32.0,-100.00,North,-999,-999.0,-999.0,62,0.00,,,0.93,0.000000,,2013-04-20 05:32:00,
2013-04-20 01:43:00,44.0,32.0,-100.00,North,-999,-999.0,-999.0,62,0.00,,,0.93,0.000000,,2013-04-20 05:43:00,
2013-04-20 01:52:00,44.0,32.0,-100.00,North,-999,-999.0,-999.0,62,0.00,,,0.93,0.000000,,2013-04-20 05:52:00,
2013-04-20 02:02:00,44.0,32.0,-100.00,North,-999,-999.0,-999.0,62,0.00,,,0.93,0.000000,,2013-04-20 06:02:00,
2013-04-20 02:10:00,41.0,30.0,-100.00,North,-999,-999.0,-999.0,64,0.00,,,0.93,0.000000,,2013-04-20 06:10:00,
2013-04-20 02:42:00,41.0,30.0,-100.00,North,-999,-999.0,-999.0,64,0.00,,,0.93,0.000000,,2013-04-20 06:42:00,
2013-04-20 02:52:00,41.0,30.0,-100.00,North,-999,-999.0,-999.0,64,0.00,,,0.93,0.000000,,2013-04-20 06:52:00,
2013-04-20 03:02:00,41.0,30.0,-100.00,North,-999,-999.0,-999.0,64,0.00,,,0.93,0.000000,,2013-04-20 07:02:00,
2013-04-20 03:10:00,41.0,31.0,-100.00,North,-999,-999.0,-999.0,66,0.00,,,-99.99,0.000000,,2013-04-20 07:10:00,
2013-04-20 03:42:00,41.0,31.0,-100.00,North,-999,-999.0,-999.0,66,0.00,,,-99.99,0.000000,,2013-04-20 07:42:00,
2013-04-20 03:52:00,41.0,31.0,-100.00,North,-999,-999.0,-999.0,66,0.00,,,-99.99,0.000000,,2013-04-20 07:52:00,
2013-04-20 04:02:00,41.0,31.0,-100.00,North,-999,-999.0,-999.0,66,0.00,,,-99.99,0.000000,,2013-04-20 08:02:00,
2013-04-20 04:10:00,40.0,28.0,-100.00,North,-999,-999.0,-999.0,61,0.00,,,0.93,0.000000,,2013-04-20 08:10:00,
2013-04-20 04:42:00,40.0,28.0,-100.00,North,-999,-999.0,-999.0,61,0.00,,,0.93,0.000000,,2013-04-20 08:42:00,
2013-04-20 04:52:00,40.0,28.0,-100.00,North,-999,-999.0,-999.0,61,0.00,,,0.93,0.000000,,2013-04-20 08:52:00,
2013-04-20 05:02:00,40.0,28.0,-100.00,North,-999,-999.0,-999.0,61,0.00,,,0.93,0.000000,,2013-04-20 09:02:00,
2013-04-20 05:10:00,37.0,24.0,-100.00,North,-999,-999.0,-999.0,59,0.00,,,0.93,0.000000,,2013-04-20 09:10:00,
2013-04-20 05:33:00,37.0,24.0,-100.00,North,-999,-999.0,-999.0,59,0.00,,,0.93,0.000000,,2013-04-20 09:33:00,
2013-04-20 05:43:00,37.0,24.0,-100.00,North,-999,-999.0,-999.0,59,0.00,,,0.93,0.000000,,2013-04-20 09:43:00,
2013-04-20 05:53:00,37.0,24.0,-100.00,North,-999,-999.0,-999.0,59,0.00,,,0.93,0.000000,,2013-04-20 09:53:00,
2013-04-20 06:03:00,37.0,24.0,-100.00,North,-999,-999.0,-999.0,59,0.00,,,0.93,0.000000,,2013-04-20 10:03:00,
2013-04-20 06:10:00,36.0,26.0,-100.00,North,-999,-999.0,-999.0,66,0.00,,,0.93,0.000000,,2013-04-20 10:10:00,
2013-04-20 06:42:00,36.0,26.0,-100.00,North,-999,-999.0,-999.0,66,0.00,,,0.93,0.000000,,2013-04-20 10:42:00,
2013-04-20 06:53:00,36.0,26.0,-100.00,North,-999,-999.0,-999.0,66,0.00,,,0.93,0.000000,,2013-04-20 10:53:00,
2013-04-20 07:02:00,36.0,26.0,-100.00,North,-999,-999.0,-999.0,66,0.00,,,0.93,0.000000,,2013-04-20 11:02:00,
2013-04-20 07:10:00,36.0,24.0,-100.00,North,-999,-999.0,-999.0,62,0.00,,,0.93,0.000000,,2013-04-20 11:10:00,
2013-04-20 07:42:00,36.0,24.0,-100.00,North,-999,-999.0,-999.0,62,0.00,,,0.93,0.000000,,2013-04-20 11:42:00,
2013-04-20 07:53:00,36.0,24.0,-100.00,North,-999,-999.0,-999.0,62,0.00,,,0.93,0.000000,,2013-04-20 11:53:00,
2013-04-20 08:02:00,36.0,24.0,-100.00,North,-999,-999.0,-999.0,62,0.00,,,0.93,0.000000,,2013-04-20 12:02:00,
2013-04-20 08:10:00,36.0,22.0,-100.00,North,-999,-999.0,-999.0,56,0.00,,,0.93,0.000000,,2013-04-20 12:10:00,
2013-04-20 08:32:00,36.0,22.0,-100.00,North,-999,-999.0,-999.0,56,0.00,,,0.93,0.000000,,2013-04-20 12:32:00,
2013-04-20 08:42:00,36.0,22.0,-100.00,North,-999,-999.0,-999.0,56,0.00,,,0.93,0.000000,,2013-04-20 12:42:00,
2013-04-20 08:52:00,36.0,22.0,-100.00,North,-999,-999.0,-999.0,56,0.00,,,0.93,0.000000,,2013-04-20 12:52:00,
2013-04-20 09:02:00,36.0,22.0,-100.00,North,-999,-999.0,-999.0,56,0.00,,,0.93,0.000000,,2013-04-20 13:02:00,
2013-04-20 09:10:00,43.0,25.0,-100.00,North,-999,-999.0,-999.0,48,0.00,,,0.93,0.000000,,2013-04-20 13:10:00,
2013-04-20 09:32:00,43.0,25.0,-100.00,North,-999,-999.0,-999.0,48,0.00,,,0.93,0.000000,,2013-04-20 13:32:00,
2013-04-20 09:42:00,43.0,25.0,-100.00,North,-999,-999.0,-999.0,48,0.00,,,0.93,0.000000,,2013-04-20 13:42:00,
2013-04-20 09:52:00,43.0,25.0,-100.00,North,-999,-999.0,-999.0,48,0.00,,,0.93,0.000000,,2013-04-20 13:52:00,
2013-04-20 10:02:00,43.0,25.0,-100.00,North,-999,-999.0,-999.0,48,0.00,,,0.93,0.000000,,2013-04-20 14:02:00,
2013-04-20 10:10:00,47.0,25.0,-100.00,North,-999,-999.0,-999.0,42,0.00,,,0.92,0.000000,,2013-04-20 14:10:00,
2013-04-20 10:32:00,47.0,25.0,-100.00,North,-999,-999.0,-999.0,42,0.00,,,0.92,0.000000,,2013-04-20 14:32:00,
2013-04-20 10:42:00,47.0,25.0,-100.00,North,-999,-999.0,-999.0,42,0.00,,,0.92,0.000000,,2013-04-20 14:42:00,
2013-04-20 10:52:00,47.0,25.0,-100.00,North,-999,-999.0,-999.0,42,0.00,,,0.92,0.000000,,2013-04-20 14:52:00,
2013-04-20 11:02:00,47.0,25.0,-100.00,North,-999,-999.0,-999.0,42,0.00,,,0.92,0.000000,,2013-04-20 15:02:00,
2013-04-20 11:10:00,51.0,24.0,-100.00,North,-999,-999.0,-999.0,35,0.00,,,0.91,0.000000,,2013-04-20 15:10:00,
2013-04-20 11:34:00,51.0,24.0,-100.00,North,-999,-999.0,-999.0,35,0.00,,,0.91,0.000000,,2013-04-20 15:34:00,
2013-04-20 11:43:00,51.0,24.0,-100.00,North,-999,-999.0,-999.0,35,0.00,,,0.91,0.000000,,2013-04-20 15:43:00,
2013-04-20 11:53:00,51.0,24.0,-100.00,North,-999,-999.0,-999.0,35,0.00,,,0.91,0.000000,,2013-04-20 15:53:00,
2013-04-20 12:03:00,51.0,24.0,-100.00,North,-999,-999.0,-999.0,35,0.00,,,0.91,0.000000,,2013-04-20 16:03:00,
2013-04-20 12:10:00,53.0,25.0,-100.00,North,-999,-999.0,-999.0,33,0.00,,,0.88,0.000000,,2013-04-20 16:10:00,
2013-04-20 12:42:00,53.0,25.0,-100.00,North,-999,-999.0,-999.0,33,0.00,,,0.88,0.000000,,2013-04-20 16:42:00,
2013-04-20 12:53:00,53.0,25.0,-100.00,North,-999,-999.0,-999.0,33,0.00,,,0.88,0.000000,,2013-04-20 16:53:00,
2013-04-20 13:02:00,53.0,25.0,-100.00,North,-999,-999.0,-999.0,33,0.00,,,0.88,0.000000,,2013-04-20 17:02:00,
2013-04-20 13:10:00,55.0,24.0,-100.00,North,-999,-999.0,-999.0,30,0.00,,,0.83,0.000000,,2013-04-20 17:10:00,
2013-04-20 13:33:00,55.0,24.0,-100.00,North,-999,-999.0,-999.0,30,0.00,,,0.83,0.000000,,2013-04-20 17:33:00,
2013-04-20 13:42:00,55.0,24.0,-100.00,North,-999,-999.0,-999.0,30,0.00,,,0.83,0.000000,,2013-04-20 17:42:00,
2013-04-20 13:52:00,55.0,24.0,-100.00,North,-999,-999.0,-999.0,30,0.00,,,0.83,0.000000,,2013-04-20 17:52:00,
2013-04-20 14:02:00,55.0,24.0,-100.00,North,-999,-999.0,-999.0,30,0.00,,,0.83,0.000000,,2013-04-20 18:02:00,
2013-04-20 14:10:00,58.0,25.0,-100.00,North,-999,-999.0,-999.0,28,0.00,,,0.58,0.000000,,2013-04-20 18:10:00,
2013-04-20 14:32:00,58.0,25.0,-100.00,North,-999,-999.0,-999.0,28,0.00,,,0.58,0.000000,,2013-04-20 18:32:00,
2013-04-20 14:42:00,58.0,25.0,-100.00,North,-999,-999.0,-999.0,28,0.00,,,0.58,0.000000,,2013-04-20 18:42:00,
2013-04-20 14:53:00,58.0,25.0,-100.00,North,-999,-999.0,-999.0,28,0.00,,,0.58,0.000000,,2013-04-20 18:53:00,
2013-04-20 15:02:00,58.0,25.0,-100.00,North,-999,-999.0,-999.0,28,0.00,,,0.58,0.000000,,2013-04-20 19:02:00,
2013-04-20 15:10:00,61.0,27.0,-100.00,North,-999,-999.0,-999.0,27,0.00,,,0.29,0.000000,,2013-04-20 19:10:00,
2013-04-20 15:32:00,61.0,27.0,-100.00,North,-999,-999.0,-999.0,27,0.00,,,0.29,0.000000,,2013-04-20 19:32:00,
2013-04-20 15:42:00,61.0,27.0,-100.00,North,-999,-999.0,-999.0,27,0.00,,,0.29,0.000000,,2013-04-20 19:42:00,
2013-04-20 15:52:00,61.0,27.0,-100.00,North,-999,-999.0,-999.0,27,0.00,,,0.29,0.000000,,2013-04-20 19:52:00,
2013-04-20 16:02:00,61.0,27.0,-100.00,North,-999,-999.0,-999.0,27,0.00,,,0.29,0.000000,,2013-04-20 20:02:00,
2013-04-20 16:10:00,61.0,26.0,-100.00,North,-999,-999.0,-999.0,26,0.00,,,0.23,0.000000,,2013-04-20 20:10:00,
2013-04-20 16:32:00,61.0,26.0,-100.00,North,-999,-999.0,-999.0,26,0.00,,,0.23,0.000000,,2013-04-20 20:32:00,
2013-04-20 16:42:00,61.0,26.0,-100.00,North,-999,-999.0,-999.0,26,0.00,,,0.23,0.000000,,2013-04-20 20:42:00,
2013-04-20 16:52:00,61.0,26.0,-100.00,North,-999,-999.0,-999.0,26,0.00,,,0.23,0.000000,,2013-04-20 20:52:00,
2013-04-20 17:02:00,61.0,26.0,-100.00,North,-999,-999.0,-999.0,26,0.00,,,0.23,0.000000,,2013-04-20 21:02:00,
2013-04-20 17:10:00,61.0,27.0,-100.00,North,-999,-999.0,-999.0,27,0.00,,,-99.99,0.000000,,2013-04-20 21:10:00,
2013-04-20 17:43:00,61.0,27.0,-100.00,North,-999,-999.0,-999.0,27,0.00,,,-99.99,0.000000,,2013-04-20 21:43:00,
2013-04-20 17:53:00,61.0,27.0,-100.00,North,-999,-999.0,-999.0,27,0.00,,,-99.99,0.000000,,2013-04-20 21:53:00,
2013-04-20 18:03:00,61.0,27.0,-100.00,North,-999,-999.0,-999.0,27,0.00,,,-99.99,0.000000,,2013-04-20 22:03:00,
2013-04-20 18:10:00,58.0,26.0,-100.00,North,-999,-999.0,-999.0,29,0.00,,,0.01,0.000000,,2013-04-20 22:10:00,
2013-04-20 18:33:00,58.0,26.0,-100.00,North,-999,-999.0,-999.0,29,0.00,,,0.01,0.000000,,2013-04-20 22:33:00,
2013-04-20 18:42:00,58.0,26.0,-100.00,North,-999,-999.0,-999.0,29,0.00,,,0.01,0.000000,,2013-04-20 22:42:00,
2013-04-20 18:53:00,58.0,26.0,-100.00,North,-999,-999.0,-999.0,29,0.00,,,0.01,0.000000,,2013-04-20 22:53:00,
2013-04-20 19:02:00,58.0,26.0,-100.00,North,-999,-999.0,-999.0,29,0.00,,,0.01,0.000000,,2013-04-20 23:02:00,
2013-04-20 19:10:00,54.0,26.0,-100.00,North,-999,-999.0,-999.0,33,0.00,,,0.00,0.000000,,2013-04-20 23:10:00,
2013-04-20 19:32:00,54.0,26.0,-100.00,North,-999,-999.0,-999.0,33,0.00,,,0.00,0.000000,,2013-04-20 23:32:00,
2013-04-20 19:42:00,54.0,26.0,-100.00,North,-999,-999.0,-999.0,33,0.00,,,0.00,0.000000,,2013-04-20 23:42:00,
2013-04-20 19:53:00,54.0,26.0,-100.00,North,-999,-999.0,-999.0,33,0.00,,,0.00,0.000000,,2013-04-20 23:53:00,
2013-04-20 20:01:00,54.0,26.0,-100.00,North,-999,-999.0,-999.0,33,0.00,,,0.00,0.000000,,2013-04-21 00:01:00,
2013-04-20 21:10:00,47.0,25.0,-100.00,North,-999,-999.0,-999.0,41,-99.99,,,0.00,0.000000,,2013-04-21 01:10:00,
2013-04-20 21:32:00,47.0,25.0,-100.00,North,-999,-999.0,-999.0,41,-99.99,,,0.00,0.000000,,2013-04-21 01:32:00,
2013-04-20 21:42:00,47.0,25.0,-100.00,North,-999,-999.0,-999.0,41,-99.99,,,0.00,0.000000,,2013-04-21 01:42:00,
2013-04-20 21:52:00,47.0,25.0,-100.00,North,-999,-999.0,-999.0,41,-99.99,,,0.00,0.000000,,2013-04-21 01:52:00,
2013-04-20 22:02:00,47.0,25.0,-100.00,North,-999,-999.0,-999.0,41,-99.99,,,0.00,0.000000,,2013-04-21 02:02:00,
2013-04-20 22:10:00,46.0,23.0,-100.00,North,-999,-999.0,-999.0,40,0.00,,,0.00,0.000000,,2013-04-21 02:10:00,
2013-04-20 22:32:00,46.0,23.0,-100.00,North,-999,-999.0,-999.0,40,0.00,,,0.00,0.000000,,2013-04-21 02:32:00,
2013-04-20 22:42:00,46.0,23.0,-100.00,North,-999,-999.0,-999.0,40,0.00,,,0.00,0.000000,,2013-04-21 02:42:00,
2013-04-20 22:52:00,46.0,23.0,-100.00,North,-999,-999.0,-999.0,40,0.00,,,0.00,0.000000,,2013-04-21 02:52:00,
2013-04-20 23:02:00,46.0,23.0,-100.00,North,-999,-999.0,-999.0,40,0.00,,,0.00,0.000000,,2013-04-21 03:02:00,
2013-04-20 23:10:00,44.0,23.0,-100.00,North,-999,-999.0,-999.0,43,0.00,,,0.00,0.000000,,2013-04-21 03:10:00,
2013-04-20 23:33:00,44.0,23.0,-100.00,North,-999,-999.0,-999.0,43,0.00,,,0.00,0.000000,,2013-04-21 03:33:00,
2013-04-20 23:42:00,44.0,23.0,-100.00,North,-999,-999.0,-999.0,43,0.00,,,0.00,0.000000,,2013-04-21 03:42:00,
2013-04-20 23:53:00,44.0,23.0,-100.00,North,-999,-999.0,-999.0,43,0.00,,,0.00,0.000000,,2013-04-21 03:53:00,